sensor_id;sensor_type;location;lat;lon;timestamp;temperature;humidity
21895;DHT22;11112;51.270;7.224;2023-05-23T00:02:08;19.10;99.70
21895;DHT22;11112;51.270;7.224;2023-05-23T00:04:38;19.10;99.70
21895;DHT22;11112;51.270;7.224;2023-05-23T00:07:05;19.10;99.70
21895;DHT22;11112;51.270;7.224;2023-05-23T00:09:32;19.10;99.70
21895;DHT22;11112;51.270;7.224;2023-05-23T00:11:59;19.10;99.80
21895;DHT22;11112;51.270;7.224;2023-05-23T00:14:28;19.00;99.70
21895;DHT22;11112;51.270;7.224;2023-05-23T00:16:58;19.00;99.90
21895;DHT22;11112;51.270;7.224;2023-05-23T00:19:26;19.00;99.80
21895;DHT22;11112;51.270;7.224;2023-05-23T00:21:53;19.00;99.80
21895;DHT22;11112;51.270;7.224;2023-05-23T00:24:23;19.00;99.70
21895;DHT22;11112;51.270;7.224;2023-05-23T00:26:50;19.00;99.70
21895;DHT22;11112;51.270;7.224;2023-05-23T00:29:17;19.00;99.70
21895;DHT22;11112;51.270;7.224;2023-05-23T00:31:46;19.00;99.90
21895;DHT22;11112;51.270;7.224;2023-05-23T00:34:13;18.90;99.60
21895;DHT22;11112;51.270;7.224;2023-05-23T00:36:42;19.00;99.60
21895;DHT22;11112;51.270;7.224;2023-05-23T00:39:12;18.90;99.60
21895;DHT22;11112;51.270;7.224;2023-05-23T00:41:44;19.00;99.50
21895;DHT22;11112;51.270;7.224;2023-05-23T00:44:12;18.90;99.40
21895;DHT22;11112;51.270;7.224;2023-05-23T00:46:40;18.80;99.50
21895;DHT22;11112;51.270;7.224;2023-05-23T00:49:12;18.80;99.50
21895;DHT22;11112;51.270;7.224;2023-05-23T00:51:39;18.90;99.60
21895;DHT22;11112;51.270;7.224;2023-05-23T00:54:08;18.80;99.30
21895;DHT22;11112;51.270;7.224;2023-05-23T00:56:37;18.80;99.40
21895;DHT22;11112;51.270;7.224;2023-05-23T00:59:06;18.80;99.30
21895;DHT22;11112;51.270;7.224;2023-05-23T01:01:34;18.80;99.20
21895;DHT22;11112;51.270;7.224;2023-05-23T01:04:02;18.80;99.30
21895;DHT22;11112;51.270;7.224;2023-05-23T01:06:32;18.80;99.10
21895;DHT22;11112;51.270;7.224;2023-05-23T01:09:01;18.80;99.00
21895;DHT22;11112;51.270;7.224;2023-05-23T01:11:36;18.80;99.10
21895;DHT22;11112;51.270;7.224;2023-05-23T01:14:11;18.70;99.10
21895;DHT22;11112;51.270;7.224;2023-05-23T01:16:45;18.70;99.00
21895;DHT22;11112;51.270;7.224;2023-05-23T01:19:30;18.70;99.10
21895;DHT22;11112;51.270;7.224;2023-05-23T01:22:21;18.70;99.10
21895;DHT22;11112;51.270;7.224;2023-05-23T01:25:12;18.70;99.00
21895;DHT22;11112;51.270;7.224;2023-05-23T01:27:54;18.70;98.70
21895;DHT22;11112;51.270;7.224;2023-05-23T01:30:23;18.60;98.50
21895;DHT22;11112;51.270;7.224;2023-05-23T01:32:53;18.50;98.70
21895;DHT22;11112;51.270;7.224;2023-05-23T01:35:23;18.50;98.70
21895;DHT22;11112;51.270;7.224;2023-05-23T01:37:52;18.60;98.70
21895;DHT22;11112;51.270;7.224;2023-05-23T01:40:19;18.50;98.50
21895;DHT22;11112;51.270;7.224;2023-05-23T01:42:47;18.50;98.50
21895;DHT22;11112;51.270;7.224;2023-05-23T01:45:16;18.40;98.60
21895;DHT22;11112;51.270;7.224;2023-05-23T01:47:46;18.40;98.60
21895;DHT22;11112;51.270;7.224;2023-05-23T01:50:16;18.40;98.70
21895;DHT22;11112;51.270;7.224;2023-05-23T01:52:46;18.40;98.80
21895;DHT22;11112;51.270;7.224;2023-05-23T01:55:15;18.40;98.70
21895;DHT22;11112;51.270;7.224;2023-05-23T01:57:49;18.40;98.60
21895;DHT22;11112;51.270;7.224;2023-05-23T02:00:22;18.40;98.60
21895;DHT22;11112;51.270;7.224;2023-05-23T02:02:53;18.40;98.70
21895;DHT22;11112;51.270;7.224;2023-05-23T02:05:20;18.40;98.70
21895;DHT22;11112;51.270;7.224;2023-05-23T02:07:47;18.40;98.40
21895;DHT22;11112;51.270;7.224;2023-05-23T02:10:15;18.40;98.50
21895;DHT22;11112;51.270;7.224;2023-05-23T02:12:43;18.40;98.40
21895;DHT22;11112;51.270;7.224;2023-05-23T02:15:11;18.40;98.50
21895;DHT22;11112;51.270;7.224;2023-05-23T02:17:40;18.50;98.50
21895;DHT22;11112;51.270;7.224;2023-05-23T02:20:09;18.40;98.40
21895;DHT22;11112;51.270;7.224;2023-05-23T02:22:38;18.40;98.50
21895;DHT22;11112;51.270;7.224;2023-05-23T02:25:06;18.50;98.60
21895;DHT22;11112;51.270;7.224;2023-05-23T02:27:34;18.50;98.50
21895;DHT22;11112;51.270;7.224;2023-05-23T02:30:04;18.40;98.50
21895;DHT22;11112;51.270;7.224;2023-05-23T02:32:32;18.40;98.60
21895;DHT22;11112;51.270;7.224;2023-05-23T02:35:04;18.50;98.90
21895;DHT22;11112;51.270;7.224;2023-05-23T02:37:34;18.50;98.50
21895;DHT22;11112;51.270;7.224;2023-05-23T02:40:01;18.50;98.50
21895;DHT22;11112;51.270;7.224;2023-05-23T02:42:32;18.50;98.60
21895;DHT22;11112;51.270;7.224;2023-05-23T02:44:59;18.50;98.60
21895;DHT22;11112;51.270;7.224;2023-05-23T02:47:27;18.50;98.70
21895;DHT22;11112;51.270;7.224;2023-05-23T02:49:54;18.50;98.70
21895;DHT22;11112;51.270;7.224;2023-05-23T02:52:24;18.50;98.90
21895;DHT22;11112;51.270;7.224;2023-05-23T02:54:51;18.40;99.00
21895;DHT22;11112;51.270;7.224;2023-05-23T02:57:18;18.30;99.10
21895;DHT22;11112;51.270;7.224;2023-05-23T02:59:46;18.30;99.20
21895;DHT22;11112;51.270;7.224;2023-05-23T03:02:13;18.30;99.30
21895;DHT22;11112;51.270;7.224;2023-05-23T03:04:40;18.30;99.40
21895;DHT22;11112;51.270;7.224;2023-05-23T03:07:12;18.30;99.50
21895;DHT22;11112;51.270;7.224;2023-05-23T03:09:41;18.30;99.50
21895;DHT22;11112;51.270;7.224;2023-05-23T03:12:08;18.30;99.50
21895;DHT22;11112;51.270;7.224;2023-05-23T03:14:35;18.30;99.90
21895;DHT22;11112;51.270;7.224;2023-05-23T03:17:03;18.20;99.50
21895;DHT22;11112;51.270;7.224;2023-05-23T03:19:30;18.20;99.60
21895;DHT22;11112;51.270;7.224;2023-05-23T03:21:57;18.20;99.90
21895;DHT22;11112;51.270;7.224;2023-05-23T03:24:25;18.30;99.70
21895;DHT22;11112;51.270;7.224;2023-05-23T03:26:53;18.30;99.60
21895;DHT22;11112;51.270;7.224;2023-05-23T03:29:21;18.30;99.50
21895;DHT22;11112;51.270;7.224;2023-05-23T03:31:48;18.20;99.40
21895;DHT22;11112;51.270;7.224;2023-05-23T03:34:16;18.20;99.50
21895;DHT22;11112;51.270;7.224;2023-05-23T03:36:43;18.20;99.60
21895;DHT22;11112;51.270;7.224;2023-05-23T03:39:11;18.20;99.50
21895;DHT22;11112;51.270;7.224;2023-05-23T03:41:39;18.20;99.40
21895;DHT22;11112;51.270;7.224;2023-05-23T03:44:08;18.10;99.40
21895;DHT22;11112;51.270;7.224;2023-05-23T03:46:36;18.20;99.30
21895;DHT22;11112;51.270;7.224;2023-05-23T03:49:03;18.20;99.10
21895;DHT22;11112;51.270;7.224;2023-05-23T03:51:30;18.10;99.30
21895;DHT22;11112;51.270;7.224;2023-05-23T03:53:58;18.00;99.10
21895;DHT22;11112;51.270;7.224;2023-05-23T03:56:25;18.00;99.20
21895;DHT22;11112;51.270;7.224;2023-05-23T03:58:53;18.00;99.20
21895;DHT22;11112;51.270;7.224;2023-05-23T04:01:23;18.00;99.20
21895;DHT22;11112;51.270;7.224;2023-05-23T04:03:50;18.00;99.40
21895;DHT22;11112;51.270;7.224;2023-05-23T04:06:18;18.00;99.80
21895;DHT22;11112;51.270;7.224;2023-05-23T04:08:48;18.00;99.50
21895;DHT22;11112;51.270;7.224;2023-05-23T04:11:15;18.00;99.50
21895;DHT22;11112;51.270;7.224;2023-05-23T04:13:44;18.00;99.60
21895;DHT22;11112;51.270;7.224;2023-05-23T04:16:12;18.00;99.60
21895;DHT22;11112;51.270;7.224;2023-05-23T04:18:40;18.00;99.70
21895;DHT22;11112;51.270;7.224;2023-05-23T04:21:08;17.90;99.70
21895;DHT22;11112;51.270;7.224;2023-05-23T04:23:35;17.80;99.90
21895;DHT22;11112;51.270;7.224;2023-05-23T04:26:03;17.80;99.90
21895;DHT22;11112;51.270;7.224;2023-05-23T04:28:30;17.80;99.90
21895;DHT22;11112;51.270;7.224;2023-05-23T04:30:58;17.80;99.90
21895;DHT22;11112;51.270;7.224;2023-05-23T04:33:29;17.80;99.90
21895;DHT22;11112;51.270;7.224;2023-05-23T04:35:57;17.80;99.90
21895;DHT22;11112;51.270;7.224;2023-05-23T04:38:25;17.70;99.90
21895;DHT22;11112;51.270;7.224;2023-05-23T04:40:53;17.70;99.90
21895;DHT22;11112;51.270;7.224;2023-05-23T04:43:22;17.70;99.90
21895;DHT22;11112;51.270;7.224;2023-05-23T04:45:51;17.70;99.90
21895;DHT22;11112;51.270;7.224;2023-05-23T04:48:20;17.70;99.90
21895;DHT22;11112;51.270;7.224;2023-05-23T04:50:47;17.70;99.90
21895;DHT22;11112;51.270;7.224;2023-05-23T04:53:18;17.70;99.90
21895;DHT22;11112;51.270;7.224;2023-05-23T04:55:45;17.70;99.90
21895;DHT22;11112;51.270;7.224;2023-05-23T04:58:13;17.80;99.90
21895;DHT22;11112;51.270;7.224;2023-05-23T05:00:42;17.80;99.90
21895;DHT22;11112;51.270;7.224;2023-05-23T05:03:09;17.80;99.90
21895;DHT22;11112;51.270;7.224;2023-05-23T05:05:36;17.80;99.90
21895;DHT22;11112;51.270;7.224;2023-05-23T05:08:04;17.80;99.90
21895;DHT22;11112;51.270;7.224;2023-05-23T05:10:34;17.80;99.90
21895;DHT22;11112;51.270;7.224;2023-05-23T05:13:01;17.70;99.90
21895;DHT22;11112;51.270;7.224;2023-05-23T05:15:29;17.60;99.90
21895;DHT22;11112;51.270;7.224;2023-05-23T05:17:56;17.70;99.90
21895;DHT22;11112;51.270;7.224;2023-05-23T05:20:24;17.70;99.90
21895;DHT22;11112;51.270;7.224;2023-05-23T05:22:54;17.70;99.90
21895;DHT22;11112;51.270;7.224;2023-05-23T05:25:22;17.70;99.90
21895;DHT22;11112;51.270;7.224;2023-05-23T05:27:53;17.70;99.90
21895;DHT22;11112;51.270;7.224;2023-05-23T05:30:21;17.70;99.90
21895;DHT22;11112;51.270;7.224;2023-05-23T05:32:48;17.80;99.90
21895;DHT22;11112;51.270;7.224;2023-05-23T05:35:16;17.80;99.90
21895;DHT22;11112;51.270;7.224;2023-05-23T05:37:43;17.80;99.90
21895;DHT22;11112;51.270;7.224;2023-05-23T05:40:13;17.80;99.90
21895;DHT22;11112;51.270;7.224;2023-05-23T05:42:40;17.80;99.90
21895;DHT22;11112;51.270;7.224;2023-05-23T05:45:10;17.80;99.90
21895;DHT22;11112;51.270;7.224;2023-05-23T05:47:38;17.80;99.90
21895;DHT22;11112;51.270;7.224;2023-05-23T05:50:07;17.70;99.90
21895;DHT22;11112;51.270;7.224;2023-05-23T05:52:35;17.70;99.90
21895;DHT22;11112;51.270;7.224;2023-05-23T05:55:05;17.70;99.90
21895;DHT22;11112;51.270;7.224;2023-05-23T05:57:33;17.70;99.90
21895;DHT22;11112;51.270;7.224;2023-05-23T06:00:04;17.70;99.90
21895;DHT22;11112;51.270;7.224;2023-05-23T06:02:38;17.70;99.90
21895;DHT22;11112;51.270;7.224;2023-05-23T06:05:06;17.70;99.90
21895;DHT22;11112;51.270;7.224;2023-05-23T06:07:37;17.60;99.90
21895;DHT22;11112;51.270;7.224;2023-05-23T06:10:05;17.50;99.90
21895;DHT22;11112;51.270;7.224;2023-05-23T06:12:34;17.50;99.90
21895;DHT22;11112;51.270;7.224;2023-05-23T06:15:01;17.50;99.90
21895;DHT22;11112;51.270;7.224;2023-05-23T06:17:29;17.60;99.90
21895;DHT22;11112;51.270;7.224;2023-05-23T06:19:59;17.60;99.90
21895;DHT22;11112;51.270;7.224;2023-05-23T06:22:26;17.60;99.90
21895;DHT22;11112;51.270;7.224;2023-05-23T06:24:55;17.70;99.90
21895;DHT22;11112;51.270;7.224;2023-05-23T06:27:24;17.70;99.90
21895;DHT22;11112;51.270;7.224;2023-05-23T06:29:52;17.60;99.90
21895;DHT22;11112;51.270;7.224;2023-05-23T06:32:19;17.60;99.90
21895;DHT22;11112;51.270;7.224;2023-05-23T06:34:46;17.60;99.90
21895;DHT22;11112;51.270;7.224;2023-05-23T06:37:15;17.60;99.90
21895;DHT22;11112;51.270;7.224;2023-05-23T06:39:43;17.60;99.90
21895;DHT22;11112;51.270;7.224;2023-05-23T06:42:10;17.60;99.90
21895;DHT22;11112;51.270;7.224;2023-05-23T06:44:37;17.50;99.90
21895;DHT22;11112;51.270;7.224;2023-05-23T06:47:05;17.50;99.90
21895;DHT22;11112;51.270;7.224;2023-05-23T06:49:32;17.40;99.90
21895;DHT22;11112;51.270;7.224;2023-05-23T06:52:00;17.40;99.90
21895;DHT22;11112;51.270;7.224;2023-05-23T06:54:29;17.30;99.90
21895;DHT22;11112;51.270;7.224;2023-05-23T06:56:56;17.30;99.90
21895;DHT22;11112;51.270;7.224;2023-05-23T06:59:23;17.30;99.90
21895;DHT22;11112;51.270;7.224;2023-05-23T07:01:51;17.20;99.90
21895;DHT22;11112;51.270;7.224;2023-05-23T07:04:18;17.30;99.90
21895;DHT22;11112;51.270;7.224;2023-05-23T07:06:46;17.30;99.90
21895;DHT22;11112;51.270;7.224;2023-05-23T07:09:13;17.20;99.90
21895;DHT22;11112;51.270;7.224;2023-05-23T07:11:42;17.20;99.90
21895;DHT22;11112;51.270;7.224;2023-05-23T07:14:09;17.20;99.90
21895;DHT22;11112;51.270;7.224;2023-05-23T07:16:38;17.20;99.90
21895;DHT22;11112;51.270;7.224;2023-05-23T07:19:05;17.10;99.90
21895;DHT22;11112;51.270;7.224;2023-05-23T07:21:33;17.10;99.90
21895;DHT22;11112;51.270;7.224;2023-05-23T07:24:00;17.10;99.90
21895;DHT22;11112;51.270;7.224;2023-05-23T07:26:28;17.10;99.90
21895;DHT22;11112;51.270;7.224;2023-05-23T07:28:58;17.10;99.90
21895;DHT22;11112;51.270;7.224;2023-05-23T07:31:25;17.00;99.90
21895;DHT22;11112;51.270;7.224;2023-05-23T07:33:52;17.00;99.90
21895;DHT22;11112;51.270;7.224;2023-05-23T07:36:20;17.00;99.90
21895;DHT22;11112;51.270;7.224;2023-05-23T07:38:48;17.00;99.90
21895;DHT22;11112;51.270;7.224;2023-05-23T07:41:18;16.90;99.90
21895;DHT22;11112;51.270;7.224;2023-05-23T07:43:45;16.90;99.90
21895;DHT22;11112;51.270;7.224;2023-05-23T07:46:16;17.00;99.90
21895;DHT22;11112;51.270;7.224;2023-05-23T07:48:44;16.90;99.90
21895;DHT22;11112;51.270;7.224;2023-05-23T07:51:13;17.00;99.90
21895;DHT22;11112;51.270;7.224;2023-05-23T07:53:45;17.00;99.90
21895;DHT22;11112;51.270;7.224;2023-05-23T07:56:13;17.00;99.90
21895;DHT22;11112;51.270;7.224;2023-05-23T07:58:41;16.90;99.90
21895;DHT22;11112;51.270;7.224;2023-05-23T08:01:08;17.00;99.90
21895;DHT22;11112;51.270;7.224;2023-05-23T08:03:37;16.90;99.90
21895;DHT22;11112;51.270;7.224;2023-05-23T08:06:05;16.90;99.90
21895;DHT22;11112;51.270;7.224;2023-05-23T08:08:35;16.80;99.90
21895;DHT22;11112;51.270;7.224;2023-05-23T08:11:02;16.90;99.90
21895;DHT22;11112;51.270;7.224;2023-05-23T08:13:30;17.00;99.90
21895;DHT22;11112;51.270;7.224;2023-05-23T08:15:58;17.00;99.90
21895;DHT22;11112;51.270;7.224;2023-05-23T08:18:25;17.00;99.90
21895;DHT22;11112;51.270;7.224;2023-05-23T08:20:57;17.00;99.90
21895;DHT22;11112;51.270;7.224;2023-05-23T08:23:27;16.90;99.90
21895;DHT22;11112;51.270;7.224;2023-05-23T08:25:55;16.80;99.90
21895;DHT22;11112;51.270;7.224;2023-05-23T08:28:23;16.80;99.90
21895;DHT22;11112;51.270;7.224;2023-05-23T08:30:50;16.80;99.90
21895;DHT22;11112;51.270;7.224;2023-05-23T08:33:18;16.70;99.90
21895;DHT22;11112;51.270;7.224;2023-05-23T08:35:46;16.70;99.80
21895;DHT22;11112;51.270;7.224;2023-05-23T08:38:16;16.70;99.90
21895;DHT22;11112;51.270;7.224;2023-05-23T08:40:49;16.80;99.80
21895;DHT22;11112;51.270;7.224;2023-05-23T08:43:17;16.80;99.80
21895;DHT22;11112;51.270;7.224;2023-05-23T08:45:46;16.90;99.70
21895;DHT22;11112;51.270;7.224;2023-05-23T08:48:18;16.90;99.80
21895;DHT22;11112;51.270;7.224;2023-05-23T08:50:49;16.80;99.70
21895;DHT22;11112;51.270;7.224;2023-05-23T08:53:20;16.80;99.70
21895;DHT22;11112;51.270;7.224;2023-05-23T08:55:49;16.90;99.70
21895;DHT22;11112;51.270;7.224;2023-05-23T08:58:18;16.90;99.50
21895;DHT22;11112;51.270;7.224;2023-05-23T09:00:47;16.90;99.50
21895;DHT22;11112;51.270;7.224;2023-05-23T09:03:16;17.00;99.60
21895;DHT22;11112;51.270;7.224;2023-05-23T09:05:46;17.00;99.70
21895;DHT22;11112;51.270;7.224;2023-05-23T09:08:14;17.00;99.60
21895;DHT22;11112;51.270;7.224;2023-05-23T09:10:45;17.00;99.60
21895;DHT22;11112;51.270;7.224;2023-05-23T09:13:14;17.00;99.50
21895;DHT22;11112;51.270;7.224;2023-05-23T09:15:55;17.00;99.60
21895;DHT22;11112;51.270;7.224;2023-05-23T09:18:25;16.90;99.60
21895;DHT22;11112;51.270;7.224;2023-05-23T09:20:52;16.80;99.60
21895;DHT22;11112;51.270;7.224;2023-05-23T09:23:20;16.80;99.60
21895;DHT22;11112;51.270;7.224;2023-05-23T09:25:49;16.80;99.60
21895;DHT22;11112;51.270;7.224;2023-05-23T09:28:16;16.80;99.60
21895;DHT22;11112;51.270;7.224;2023-05-23T09:30:44;16.90;99.60
21895;DHT22;11112;51.270;7.224;2023-05-23T09:33:13;16.90;99.40
21895;DHT22;11112;51.270;7.224;2023-05-23T09:35:43;16.90;99.60
21895;DHT22;11112;51.270;7.224;2023-05-23T09:38:13;16.90;99.60
21895;DHT22;11112;51.270;7.224;2023-05-23T09:40:44;16.80;99.90
21895;DHT22;11112;51.270;7.224;2023-05-23T09:43:16;16.80;99.90
21895;DHT22;11112;51.270;7.224;2023-05-23T09:45:43;16.70;99.80
21895;DHT22;11112;51.270;7.224;2023-05-23T09:48:11;16.50;99.90
21895;DHT22;11112;51.270;7.224;2023-05-23T09:50:39;16.50;99.90
21895;DHT22;11112;51.270;7.224;2023-05-23T09:53:08;16.50;99.90
21895;DHT22;11112;51.270;7.224;2023-05-23T09:55:45;16.50;99.90
21895;DHT22;11112;51.270;7.224;2023-05-23T09:58:35;16.50;99.90
21895;DHT22;11112;51.270;7.224;2023-05-23T10:01:05;16.50;99.90
21895;DHT22;11112;51.270;7.224;2023-05-23T10:03:43;16.60;99.90
21895;DHT22;11112;51.270;7.224;2023-05-23T10:06:19;16.60;99.90
21895;DHT22;11112;51.270;7.224;2023-05-23T10:08:55;16.50;99.90
21895;DHT22;11112;51.270;7.224;2023-05-23T10:15:02;16.40;99.90
21895;DHT22;11112;51.270;7.224;2023-05-23T10:17:38;16.50;99.90
21895;DHT22;11112;51.270;7.224;2023-05-23T10:20:51;16.60;99.90
21895;DHT22;11112;51.270;7.224;2023-05-23T10:23:44;16.60;99.60
21895;DHT22;11112;51.270;7.224;2023-05-23T10:26:31;16.70;99.50
21895;DHT22;11112;51.270;7.224;2023-05-23T10:29:06;16.70;99.30
21895;DHT22;11112;51.270;7.224;2023-05-23T10:31:33;16.70;99.60
21895;DHT22;11112;51.270;7.224;2023-05-23T10:34:07;16.60;98.70
21895;DHT22;11112;51.270;7.224;2023-05-23T10:37:05;16.60;98.80
21895;DHT22;11112;51.270;7.224;2023-05-23T10:39:44;16.60;98.70
21895;DHT22;11112;51.270;7.224;2023-05-23T10:42:27;16.60;98.60
21895;DHT22;11112;51.270;7.224;2023-05-23T10:45:19;16.50;98.60
21895;DHT22;11112;51.270;7.224;2023-05-23T10:47:59;16.50;98.50
21895;DHT22;11112;51.270;7.224;2023-05-23T10:50:30;16.50;98.30
21895;DHT22;11112;51.270;7.224;2023-05-23T10:53:17;16.50;98.40
21895;DHT22;11112;51.270;7.224;2023-05-23T10:55:48;16.40;98.40
21895;DHT22;11112;51.270;7.224;2023-05-23T10:58:22;16.40;98.50
21895;DHT22;11112;51.270;7.224;2023-05-23T11:01:02;16.30;98.70
21895;DHT22;11112;51.270;7.224;2023-05-23T11:03:47;16.30;98.60
21895;DHT22;11112;51.270;7.224;2023-05-23T11:06:36;16.30;98.70
21895;DHT22;11112;51.270;7.224;2023-05-23T11:09:10;16.40;98.30
21895;DHT22;11112;51.270;7.224;2023-05-23T11:12:00;16.40;98.10
21895;DHT22;11112;51.270;7.224;2023-05-23T11:14:40;16.30;97.90
21895;DHT22;11112;51.270;7.224;2023-05-23T11:17:30;16.30;97.60
21895;DHT22;11112;51.270;7.224;2023-05-23T11:20:00;16.10;97.60
21895;DHT22;11112;51.270;7.224;2023-05-23T11:22:31;16.10;97.80
21895;DHT22;11112;51.270;7.224;2023-05-23T11:25:05;16.30;97.70
21895;DHT22;11112;51.270;7.224;2023-05-23T11:27:33;16.30;97.40
21895;DHT22;11112;51.270;7.224;2023-05-23T11:30:04;16.50;97.50
21895;DHT22;11112;51.270;7.224;2023-05-23T11:32:51;16.50;96.60
21895;DHT22;11112;51.270;7.224;2023-05-23T11:35:20;16.50;96.50
21895;DHT22;11112;51.270;7.224;2023-05-23T11:37:48;16.50;96.40
21895;DHT22;11112;51.270;7.224;2023-05-23T11:40:35;16.60;96.50
21895;DHT22;11112;51.270;7.224;2023-05-23T11:43:07;16.70;96.40
21895;DHT22;11112;51.270;7.224;2023-05-23T11:45:41;16.70;95.80
21895;DHT22;11112;51.270;7.224;2023-05-23T11:48:13;16.80;95.60
21895;DHT22;11112;51.270;7.224;2023-05-23T11:50:47;16.80;95.50
21895;DHT22;11112;51.270;7.224;2023-05-23T11:53:16;16.80;95.30
21895;DHT22;11112;51.270;7.224;2023-05-23T11:55:52;16.80;95.00
21895;DHT22;11112;51.270;7.224;2023-05-23T11:58:26;16.80;95.10
21895;DHT22;11112;51.270;7.224;2023-05-23T12:00:58;16.80;94.90
21895;DHT22;11112;51.270;7.224;2023-05-23T12:03:27;16.70;95.10
21895;DHT22;11112;51.270;7.224;2023-05-23T12:05:55;16.70;95.20
21895;DHT22;11112;51.270;7.224;2023-05-23T12:08:24;16.70;95.30
21895;DHT22;11112;51.270;7.224;2023-05-23T12:10:56;16.70;95.30
21895;DHT22;11112;51.270;7.224;2023-05-23T12:13:27;16.70;95.10
21895;DHT22;11112;51.270;7.224;2023-05-23T12:15:57;16.80;95.10
21895;DHT22;11112;51.270;7.224;2023-05-23T12:18:27;16.60;95.00
21895;DHT22;11112;51.270;7.224;2023-05-23T12:21:00;16.60;95.10
21895;DHT22;11112;51.270;7.224;2023-05-23T12:23:30;16.70;94.70
21895;DHT22;11112;51.270;7.224;2023-05-23T12:26:04;16.70;94.70
21895;DHT22;11112;51.270;7.224;2023-05-23T12:28:35;16.70;93.90
21895;DHT22;11112;51.270;7.224;2023-05-23T12:31:10;16.70;94.00
21895;DHT22;11112;51.270;7.224;2023-05-23T12:33:41;16.70;94.00
21895;DHT22;11112;51.270;7.224;2023-05-23T12:36:12;16.80;94.00
21895;DHT22;11112;51.270;7.224;2023-05-23T12:38:42;16.90;93.80
21895;DHT22;11112;51.270;7.224;2023-05-23T12:41:15;16.90;93.90
21895;DHT22;11112;51.270;7.224;2023-05-23T12:43:49;16.90;94.00
21895;DHT22;11112;51.270;7.224;2023-05-23T12:46:19;16.90;94.30
21895;DHT22;11112;51.270;7.224;2023-05-23T12:49:08;16.90;94.30
21895;DHT22;11112;51.270;7.224;2023-05-23T12:51:39;16.90;94.10
21895;DHT22;11112;51.270;7.224;2023-05-23T12:54:08;16.70;94.40
21895;DHT22;11112;51.270;7.224;2023-05-23T12:56:37;16.70;94.70
21895;DHT22;11112;51.270;7.224;2023-05-23T12:59:04;16.80;94.40
21895;DHT22;11112;51.270;7.224;2023-05-23T13:01:33;16.80;94.30
21895;DHT22;11112;51.270;7.224;2023-05-23T13:04:02;16.90;93.80
21895;DHT22;11112;51.270;7.224;2023-05-23T13:06:29;17.00;93.90
21895;DHT22;11112;51.270;7.224;2023-05-23T13:08:57;16.90;93.40
21895;DHT22;11112;51.270;7.224;2023-05-23T13:11:25;17.00;93.60
21895;DHT22;11112;51.270;7.224;2023-05-23T13:13:54;17.10;93.30
21895;DHT22;11112;51.270;7.224;2023-05-23T13:16:29;17.10;93.00
21895;DHT22;11112;51.270;7.224;2023-05-23T13:18:57;17.10;93.00
21895;DHT22;11112;51.270;7.224;2023-05-23T13:21:26;17.10;93.10
21895;DHT22;11112;51.270;7.224;2023-05-23T13:23:55;17.00;92.00
21895;DHT22;11112;51.270;7.224;2023-05-23T13:26:22;17.10;92.20
21895;DHT22;11112;51.270;7.224;2023-05-23T13:28:49;17.10;90.30
21895;DHT22;11112;51.270;7.224;2023-05-23T13:31:22;17.10;90.70
21895;DHT22;11112;51.270;7.224;2023-05-23T13:33:50;17.10;90.50
21895;DHT22;11112;51.270;7.224;2023-05-23T13:36:17;17.00;90.30
21895;DHT22;11112;51.270;7.224;2023-05-23T13:38:45;17.00;89.80
21895;DHT22;11112;51.270;7.224;2023-05-23T13:41:12;17.10;89.90
21895;DHT22;11112;51.270;7.224;2023-05-23T13:43:40;17.20;90.10
21895;DHT22;11112;51.270;7.224;2023-05-23T13:46:08;17.20;90.20
21895;DHT22;11112;51.270;7.224;2023-05-23T13:48:37;17.20;90.40
21895;DHT22;11112;51.270;7.224;2023-05-23T13:51:05;17.30;90.20
21895;DHT22;11112;51.270;7.224;2023-05-23T13:53:32;17.30;90.00
21895;DHT22;11112;51.270;7.224;2023-05-23T13:56:00;17.30;88.00
21895;DHT22;11112;51.270;7.224;2023-05-23T13:58:29;17.30;87.60
21895;DHT22;11112;51.270;7.224;2023-05-23T14:00:56;17.40;86.00
21895;DHT22;11112;51.270;7.224;2023-05-23T14:03:24;17.30;85.80
21895;DHT22;11112;51.270;7.224;2023-05-23T14:05:53;17.40;86.70
21895;DHT22;11112;51.270;7.224;2023-05-23T14:08:22;17.40;86.30
21895;DHT22;11112;51.270;7.224;2023-05-23T14:10:50;17.40;86.40
21895;DHT22;11112;51.270;7.224;2023-05-23T14:13:18;17.40;86.70
21895;DHT22;11112;51.270;7.224;2023-05-23T14:15:46;17.40;86.70
21895;DHT22;11112;51.270;7.224;2023-05-23T14:18:13;17.50;85.10
21895;DHT22;11112;51.270;7.224;2023-05-23T14:20:40;17.50;85.60
21895;DHT22;11112;51.270;7.224;2023-05-23T14:23:09;17.50;85.40
21895;DHT22;11112;51.270;7.224;2023-05-23T14:25:36;17.40;85.80
21895;DHT22;11112;51.270;7.224;2023-05-23T14:28:05;17.50;86.20
21895;DHT22;11112;51.270;7.224;2023-05-23T14:30:33;17.50;86.00
21895;DHT22;11112;51.270;7.224;2023-05-23T14:33:01;17.60;85.60
21895;DHT22;11112;51.270;7.224;2023-05-23T14:35:29;17.50;84.90
21895;DHT22;11112;51.270;7.224;2023-05-23T14:37:56;17.60;85.40
21895;DHT22;11112;51.270;7.224;2023-05-23T14:40:25;17.50;83.90
21895;DHT22;11112;51.270;7.224;2023-05-23T14:42:53;17.50;83.70
21895;DHT22;11112;51.270;7.224;2023-05-23T14:45:20;17.50;84.70
21895;DHT22;11112;51.270;7.224;2023-05-23T14:47:48;17.50;85.20
21895;DHT22;11112;51.270;7.224;2023-05-23T14:50:16;17.60;84.50
21895;DHT22;11112;51.270;7.224;2023-05-23T14:52:44;17.50;83.80
21895;DHT22;11112;51.270;7.224;2023-05-23T14:55:13;17.60;84.30
21895;DHT22;11112;51.270;7.224;2023-05-23T14:57:42;17.60;84.00
21895;DHT22;11112;51.270;7.224;2023-05-23T15:00:10;17.50;83.70
21895;DHT22;11112;51.270;7.224;2023-05-23T15:02:38;17.60;84.30
21895;DHT22;11112;51.270;7.224;2023-05-23T15:05:09;17.60;83.50
21895;DHT22;11112;51.270;7.224;2023-05-23T15:07:36;17.60;83.40
21895;DHT22;11112;51.270;7.224;2023-05-23T15:10:06;17.60;82.80
21895;DHT22;11112;51.270;7.224;2023-05-23T15:12:34;17.60;83.10
21895;DHT22;11112;51.270;7.224;2023-05-23T15:15:03;17.60;82.70
21895;DHT22;11112;51.270;7.224;2023-05-23T15:17:32;17.50;80.30
21895;DHT22;11112;51.270;7.224;2023-05-23T15:19:59;17.50;81.60
21895;DHT22;11112;51.270;7.224;2023-05-23T15:22:27;17.50;80.90
21895;DHT22;11112;51.270;7.224;2023-05-23T15:24:57;17.50;81.30
21895;DHT22;11112;51.270;7.224;2023-05-23T15:27:32;17.60;81.50
21895;DHT22;11112;51.270;7.224;2023-05-23T15:30:05;17.60;81.10
21895;DHT22;11112;51.270;7.224;2023-05-23T15:32:34;17.60;81.80
21895;DHT22;11112;51.270;7.224;2023-05-23T15:35:01;17.60;81.00
21895;DHT22;11112;51.270;7.224;2023-05-23T15:37:29;17.60;79.60
21895;DHT22;11112;51.270;7.224;2023-05-23T15:39:56;17.60;79.00
21895;DHT22;11112;51.270;7.224;2023-05-23T15:42:24;17.50;80.00
21895;DHT22;11112;51.270;7.224;2023-05-23T15:44:54;17.60;79.80
21895;DHT22;11112;51.270;7.224;2023-05-23T15:47:25;17.50;80.20
21895;DHT22;11112;51.270;7.224;2023-05-23T15:49:53;17.60;78.80
21895;DHT22;11112;51.270;7.224;2023-05-23T15:52:20;17.50;79.10